Airfield :
LOGIN :

Register | Disclaimer

   EN    FR    IT 

 










Legend :    VFR   Marginal VFR   IFR   Intensive IFR   Very Intensive IFR
Visi :
Ceiling :
>= 8 km
>= 3000ft
5 to 8 km
1000 to 3000 ft
1500m to 5 km
500 to 1000 ft
800 to 1500m
200 to 500 ft
< 800m
< 200 ft
Symbols :   Thunderstorms  Fog  Heavy snow  Heavy precipitations  Wind > 20 kt
SIGMETs :     Misc.  Thunderstorms  Icing  Turbulence  Mountain Waves  Volcanic Ashes






- Airport Elevation : 489 ft
- IATA code : GDN


EPGD - Gdansk

CURRENT METAR :
  • 281400Z 16009KT 9999 BKN040 15/08 Q1023

EXPIRED METARs :
  • 281330Z 16009KT 9999 SCT040 15/09 Q1023
  • 281300Z 16011KT 9999 FEW040 15/08 Q1023
  • 281230Z 17011KT 140V200 CAVOK 16/08 Q1023
  • 281200Z 15011KT CAVOK 15/08 Q1023
  • 281130Z 15012KT CAVOK 14/08 Q1023

TAF TAF EPGD
Valid from the 28 at 12:00 until the 29 at 12:00 UTC


281130Z 2812/2912 14010KT 9999 SCT040
PROB30
TEMPO 2812/2816 16015G25KT
TEMPO 2909/2912 16015G27KT



MET'MAP, your aeronautical weather chart ! - Copyright ORBIFLY December 2007 - Disclaimer

ORBIFLY MET'MAP TEAM :

Programming & Development : Alexandra Zaïnal
Concept & original design : Baudouin d'Aumeries
Assistance for programming : Marc-Olivier Méhu
Technical & hardware support : Manuel Goepfert

Contact : metmap@orbifly.com




SOURCES & CREDITS :

   NOAA